Terminal Aerodrome Forecast
Issued by NWS Binghamton, NY

Home | Current Version | Previous Version | Text Only | Print | Product List | Glossary On
Versions: 1 2 3 4 5 6 7 8 9 10 11 12 13 14
419
FTUS41 KBGM 231133
TAFBGM
TAF
KBGM 231133Z 2312/2412 21006KT P6SM OVC100
     FM231500 21010G18KT P6SM OVC035
      TEMPO 2316/2320 3SM -SHRA BR OVC025
     FM232000 23009KT 3SM -SHRA BR OVC025
     FM240200 23007KT 3SM -SHRA BR OVC015
     FM240500 26006KT 3SM -SHRA BR OVC008=

USA.gov is the U.S. government's official web portal to all federal, state and local government web resources and services.